Time;durP1;ratioP1;P1;durP2;ratioP2;P2;SDS_P1;SDS_P2;PMS_P1;PMS_P2;Temp;Humidity;BMP_temperature;BMP_pressure;BME280_temperature;BME280_humidity;BME280_pressure;Samples;Min_cycle;Max_cycle;Signal;HPM_P1;HPM_P2
2022/03/01 00:00:24;;;;;;;8.93;6.30;;;5.70;70.50;;;;;;6245566;22;20012;-78
2022/03/01 00:02:50;;;;;;;12.05;6.63;;;5.80;70.40;;;;;;6246267;23;20004;-78
2022/03/01 00:05:16;;;;;;;10.90;7.43;;;5.80;70.30;;;;;;6245358;23;20053;-73
2022/03/01 00:07:41;;;;;;;15.25;6.50;;;5.80;69.30;;;;;;6244581;22;20598;-73
2022/03/01 00:10:08;;;;;;;10.15;5.63;;;5.70;68.60;;;;;;6243759;23;20004;-72
2022/03/01 00:12:34;;;;;;;15.45;5.90;;;5.60;68.10;;;;;;6244665;22;20008;-73
2022/03/01 00:15:00;;;;;;;14.90;6.05;;;5.60;66.50;;;;;;6245399;22;19996;-73
2022/03/01 00:17:26;;;;;;;9.18;5.30;;;5.60;67.60;;;;;;6242923;23;20010;-73
2022/03/01 00:19:51;;;;;;;9.05;5.45;;;5.60;67.60;;;;;;6243945;23;20543;-72
2022/03/01 00:22:17;;;;;;;11.40;5.55;;;5.60;66.20;;;;;;6242591;23;20054;-72
2022/03/01 00:24:44;;;;;;;9.07;6.55;;;5.60;66.70;;;;;;6243234;22;20054;-72
2022/03/01 00:27:09;;;;;;;9.95;5.20;;;5.50;66.20;;;;;;6244097;22;20007;-72
2022/03/01 00:29:35;;;;;;;9.52;5.60;;;5.60;66.70;;;;;;6243239;23;20008;-72
2022/03/01 00:32:01;;;;;;;9.02;5.07;;;5.60;65.70;;;;;;6245143;23;20000;-72
2022/03/01 00:34:27;;;;;;;7.90;4.80;;;5.60;66.00;;;;;;6245384;22;20412;-72
2022/03/01 00:36:52;;;;;;;8.98;5.35;;;5.50;65.70;;;;;;6243805;23;20023;-73
2022/03/01 00:39:18;;;;;;;7.50;5.15;;;5.50;65.10;;;;;;6243422;23;20305;-73
2022/03/01 00:41:44;;;;;;;8.52;5.10;;;5.60;65.70;;;;;;6245214;23;20000;-72
2022/03/01 00:44:10;;;;;;;9.02;5.78;;;5.50;65.70;;;;;;6245355;22;20101;-72
2022/03/01 00:46:36;;;;;;;9.52;5.13;;;5.60;66.00;;;;;;6245271;23;20316;-73
2022/03/01 00:49:01;;;;;;;7.47;4.97;;;5.60;65.90;;;;;;6244902;23;20071;-72
2022/03/01 00:51:28;;;;;;;8.27;5.25;;;5.70;64.90;;;;;;6243624;23;20000;-72
2022/03/01 00:53:54;;;;;;;7.25;5.03;;;5.70;65.60;;;;;;6244748;22;20004;-72
2022/03/01 00:56:20;;;;;;;8.30;4.78;;;5.70;64.40;;;;;;6243619;23;20000;-72
2022/03/01 00:58:46;;;;;;;9.07;4.70;;;5.80;65.20;;;;;;6243445;23;20005;-72
2022/03/01 01:01:12;;;;;;;9.60;5.32;;;5.70;64.50;;;;;;6242960;23;20305;-73
2022/03/01 01:03:38;;;;;;;7.35;4.97;;;5.80;65.40;;;;;;6244982;23;20059;-73
2022/03/01 01:06:04;;;;;;;7.78;5.20;;;5.70;65.00;;;;;;6245299;23;20008;-72
2022/03/01 01:08:30;;;;;;;10.55;5.55;;;5.70;65.40;;;;;;6245280;22;20005;-73
2022/03/01 01:10:55;;;;;;;7.57;4.72;;;5.70;66.30;;;;;;6243636;23;20039;-73
2022/03/01 01:13:22;;;;;;;9.90;6.00;;;5.70;66.60;;;;;;6243328;23;20016;-72
2022/03/01 01:15:48;;;;;;;7.13;4.85;;;5.70;67.10;;;;;;6245498;22;20012;-73
2022/03/01 01:18:13;;;;;;;6.93;5.15;;;5.70;66.70;;;;;;6247022;22;20433;-72
2022/03/01 01:20:39;;;;;;;8.63;4.82;;;5.50;66.00;;;;;;6245338;23;20081;-72
2022/03/01 01:23:06;;;;;;;7.32;4.93;;;5.50;66.50;;;;;;6247126;22;20004;-72
2022/03/01 01:25:32;;;;;;;9.80;5.75;;;5.50;67.20;;;;;;6247084;22;20000;-72
2022/03/01 01:28:00;;;;;;;8.13;5.03;;;5.60;67.90;;;;;;6246752;22;20004;-73
2022/03/01 01:30:29;;;;;;;7.25;4.82;;;5.60;70.00;;;;;;6245251;23;20335;-72
2022/03/01 01:32:56;;;;;;;8.70;5.05;;;5.70;69.20;;;;;;6247031;22;20004;-73
2022/03/01 01:35:23;;;;;;;8.70;5.30;;;5.70;68.30;;;;;;6246731;22;20030;-72
2022/03/01 01:37:50;;;;;;;9.55;5.25;;;5.70;67.70;;;;;;6246980;22;20045;-72
2022/03/01 01:40:26;;;;;;;9.85;5.10;;;5.70;68.00;;;;;;6247007;22;20012;-72
2022/03/01 01:42:53;;;;;;;7.72;5.05;;;5.80;67.60;;;;;;6245410;23;20420;-72
2022/03/01 01:45:21;;;;;;;9.75;5.30;;;5.80;67.30;;;;;;6247117;22;20004;-72
2022/03/01 01:47:47;;;;;;;9.32;5.13;;;5.80;66.80;;;;;;6246866;22;20004;-72
2022/03/01 01:50:14;;;;;;;8.40;5.15;;;5.90;66.90;;;;;;6246967;22;20026;-72
2022/03/01 01:52:39;;;;;;;8.50;4.90;;;5.90;67.20;;;;;;6246805;22;20079;-72
2022/03/01 01:55:06;;;;;;;7.45;4.78;;;5.90;67.60;;;;;;6247098;22;20030;-72
2022/03/01 01:57:31;;;;;;;5.60;4.30;;;5.80;68.20;;;;;;6246559;22;19997;-73
2022/03/01 01:59:57;;;;;;;7.32;5.00;;;5.80;68.70;;;;;;6246560;23;20012;-72
2022/03/01 02:02:25;;;;;;;9.18;5.35;;;5.80;68.40;;;;;;6246708;22;20007;-73
2022/03/01 02:04:50;;;;;;;8.95;5.18;;;5.80;68.50;;;;;;6246805;22;20004;-72
2022/03/01 02:07:16;;;;;;;6.13;4.93;;;5.70;69.30;;;;;;6246437;22;20440;-72
2022/03/01 02:09:42;;;;;;;10.10;4.95;;;5.70;69.50;;;;;;6246375;22;20004;-72
2022/03/01 02:12:09;;;;;;;9.63;5.70;;;5.60;70.00;;;;;;6245897;22;20004;-72
2022/03/01 02:14:37;;;;;;;7.97;5.03;;;5.60;70.30;;;;;;6246010;22;20031;-72
2022/03/01 02:17:06;;;;;;;7.45;4.38;;;5.60;71.60;;;;;;6246168;22;20428;-72
2022/03/01 02:19:33;;;;;;;7.38;5.13;;;5.50;71.30;;;;;;6246636;22;20003;-72
2022/03/01 02:21:59;;;;;;;9.02;5.05;;;5.50;71.30;;;;;;6246431;22;20439;-72
2022/03/01 02:24:28;;;;;;;6.13;4.78;;;5.50;71.20;;;;;;6246463;22;20031;-72
2022/03/01 02:27:02;;;;;;;7.55;4.80;;;5.40;71.30;;;;;;6246416;22;20509;-72
2022/03/01 02:29:29;;;;;;;9.82;5.05;;;5.40;71.80;;;;;;6245942;22;20063;-72
2022/03/01 02:31:58;;;;;;;10.32;5.88;;;5.40;72.90;;;;;;6246261;23;20011;-72
2022/03/01 02:34:24;;;;;;;7.65;5.00;;;5.40;72.70;;;;;;6246643;22;20007;-72
2022/03/01 02:36:50;;;;;;;7.22;4.90;;;5.20;73.80;;;;;;6246353;22;20004;-73
2022/03/01 02:39:16;;;;;;;8.05;4.75;;;5.10;73.80;;;;;;6244490;23;20011;-72
2022/03/01 02:41:44;;;;;;;8.43;5.30;;;5.10;74.00;;;;;;6246513;22;20023;-73
2022/03/01 02:44:11;;;;;;;6.60;4.53;;;5.10;72.70;;;;;;6246146;22;20435;-73
2022/03/01 02:46:37;;;;;;;9.02;5.25;;;5.10;72.40;;;;;;6244781;23;20503;-72
2022/03/01 02:49:05;;;;;;;9.75;5.25;;;5.10;72.00;;;;;;6244620;23;20004;-72
2022/03/01 02:51:31;;;;;;;9.00;5.43;;;5.10;71.90;;;;;;6244752;23;20331;-72
2022/03/01 02:53:57;;;;;;;7.18;5.50;;;5.10;72.50;;;;;;6246037;22;20081;-72
2022/03/01 02:56:23;;;;;;;10.95;5.35;;;5.10;72.30;;;;;;6244488;23;20000;-72
2022/03/01 02:58:49;;;;;;;8.52;5.35;;;5.00;72.80;;;;;;6244459;23;20056;-73
2022/03/01 03:01:15;;;;;;;8.00;6.20;;;5.00;72.70;;;;;;6244015;23;20012;-73
2022/03/01 03:03:40;;;;;;;8.55;5.38;;;5.00;72.30;;;;;;6246324;23;20011;-73
2022/03/01 03:06:06;;;;;;;9.73;5.25;;;5.00;72.40;;;;;;6245969;22;20004;-72
2022/03/01 03:08:32;;;;;;;12.10;6.40;;;5.00;72.90;;;;;;6246094;22;20057;-73
2022/03/01 03:10:59;;;;;;;8.63;5.10;;;5.00;73.20;;;;;;6246479;22;20000;-73
2022/03/01 03:13:25;;;;;;;11.20;5.75;;;4.90;73.30;;;;;;6246898;22;20079;-73
2022/03/01 03:15:52;;;;;;;11.40;6.13;;;4.90;73.50;;;;;;6245288;23;20285;-73
2022/03/01 03:18:18;;;;;;;9.63;5.50;;;4.90;73.30;;;;;;6246639;22;20411;-72
2022/03/01 03:20:44;;;;;;;9.68;6.40;;;4.80;73.60;;;;;;6246880;22;20461;-72
2022/03/01 03:23:10;;;;;;;12.00;6.00;;;4.80;74.20;;;;;;6245207;23;20075;-73
2022/03/01 03:25:36;;;;;;;8.77;5.85;;;4.70;74.90;;;;;;6247228;23;20011;-72
2022/03/01 03:28:03;;;;;;;8.73;6.13;;;4.70;75.40;;;;;;6246142;22;20050;-73
2022/03/01 03:30:29;;;;;;;10.40;6.72;;;4.70;75.40;;;;;;6244372;23;20004;-73
2022/03/01 03:32:55;;;;;;;10.88;7.22;;;4.60;75.60;;;;;;6245832;23;20059;-72
2022/03/01 03:35:21;;;;;;;10.82;7.28;;;4.50;75.80;;;;;;6244350;23;20015;-72
2022/03/01 03:37:47;;;;;;;9.45;6.50;;;4.50;75.80;;;;;;6245799;22;20004;-73
2022/03/01 03:40:13;;;;;;;10.98;6.65;;;4.50;76.20;;;;;;6245099;22;20040;-73
2022/03/01 03:42:41;;;;;;;8.38;6.60;;;4.50;76.30;;;;;;6245728;22;20004;-73
2022/03/01 03:45:08;;;;;;;9.27;6.45;;;4.60;76.40;;;;;;6246021;22;20004;-72
2022/03/01 03:47:34;;;;;;;7.75;6.38;;;4.40;76.40;;;;;;6243878;23;20000;-73
2022/03/01 03:50:00;;;;;;;10.75;6.40;;;4.40;77.00;;;;;;6245893;23;20004;-73
2022/03/01 03:52:25;;;;;;;10.15;6.75;;;4.30;76.70;;;;;;6245539;22;20003;-72
2022/03/01 03:54:51;;;;;;;9.73;6.90;;;4.30;77.10;;;;;;6245517;23;20020;-73
2022/03/01 03:57:17;;;;;;;13.48;7.82;;;4.30;77.50;;;;;;6245483;23;20489;-73
2022/03/01 03:59:43;;;;;;;8.38;6.50;;;4.30;77.30;;;;;;6245501;23;20000;-73
2022/03/01 04:02:09;;;;;;;11.30;6.82;;;4.30;76.60;;;;;;6243882;23;20344;-73
2022/03/01 04:04:36;;;;;;;9.52;6.60;;;4.20;77.10;;;;;;6245748;22;20004;-72
2022/03/01 04:07:02;;;;;;;11.43;6.75;;;4.10;77.00;;;;;;6245705;22;20015;-72
2022/03/01 04:09:28;;;;;;;10.93;7.60;;;4.00;77.10;;;;;;6245487;22;20004;-72
2022/03/01 04:11:54;;;;;;;12.45;7.50;;;4.00;76.70;;;;;;6245432;22;20014;-73
2022/03/01 04:14:20;;;;;;;12.43;7.32;;;3.90;77.30;;;;;;6245287;22;19996;-73
2022/03/01 04:16:46;;;;;;;9.07;6.57;;;3.90;77.50;;;;;;6245151;23;20003;-73
2022/03/01 04:19:12;;;;;;;9.52;6.47;;;3.80;76.30;;;;;;6243308;23;20004;-73
2022/03/01 04:21:39;;;;;;;12.23;6.88;;;3.80;75.60;;;;;;6245235;22;19996;-73
2022/03/01 04:24:06;;;;;;;11.45;5.72;;;3.80;75.10;;;;;;6243662;23;20498;-73
2022/03/01 04:26:32;;;;;;;7.43;5.30;;;3.80;74.80;;;;;;6245481;22;19996;-73
2022/03/01 04:28:58;;;;;;;9.83;8.03;;;3.80;74.60;;;;;;6245269;22;20001;-73
2022/03/01 04:31:24;;;;;;;9.48;5.28;;;3.80;73.60;;;;;;6243597;23;20398;-73
2022/03/01 04:33:50;;;;;;;7.30;5.50;;;3.80;73.10;;;;;;6245387;23;20010;-73
2022/03/01 04:36:16;;;;;;;6.10;5.05;;;3.70;73.80;;;;;;6245303;22;20071;-73
2022/03/01 04:38:42;;;;;;;7.67;5.97;;;3.70;73.00;;;;;;6243539;23;20062;-72
2022/03/01 04:41:09;;;;;;;6.50;5.13;;;3.60;72.60;;;;;;6245438;22;20000;-72
2022/03/01 04:43:35;;;;;;;7.97;4.77;;;3.50;71.60;;;;;;6245519;22;20040;-73
2022/03/01 04:46:02;;;;;;;5.90;4.30;;;3.50;70.80;;;;;;6245182;22;20008;-73
2022/03/01 04:48:27;;;;;;;6.60;4.50;;;3.50;70.70;;;;;;6245563;22;20451;-72
2022/03/01 04:50:53;;;;;;;6.03;4.27;;;3.40;70.10;;;;;;6244549;23;20004;-73
2022/03/01 04:53:19;;;;;;;7.23;4.97;;;3.40;70.00;;;;;;6247640;23;20421;-73
2022/03/01 04:55:45;;;;;;;5.13;4.63;;;3.40;69.60;;;;;;6247647;22;20050;-73
2022/03/01 04:58:11;;;;;;;4.33;3.60;;;3.40;68.80;;;;;;6247619;22;20001;-73
2022/03/01 05:00:37;;;;;;;4.73;4.00;;;3.40;68.00;;;;;;6247657;22;20471;-73
2022/03/01 05:03:03;;;;;;;4.20;3.60;;;3.50;67.70;;;;;;6247929;23;20004;-73
2022/03/01 05:05:29;;;;;;;6.60;3.53;;;3.50;67.10;;;;;;6246464;23;20008;-73
2022/03/01 05:07:55;;;;;;;4.33;3.93;;;3.50;66.70;;;;;;6246307;23;20007;-73
2022/03/01 05:10:21;;;;;;;4.50;3.30;;;3.50;66.30;;;;;;6247921;22;20511;-73
2022/03/01 05:12:52;;;;;;;4.77;3.67;;;3.50;66.00;;;;;;6247664;22;20004;-72
2022/03/01 05:15:19;;;;;;;5.30;3.53;;;3.50;65.70;;;;;;6247397;22;20104;-73
2022/03/01 05:17:46;;;;;;;4.53;3.60;;;3.50;65.50;;;;;;6247187;22;20050;-73
2022/03/01 05:20:14;;;;;;;3.60;3.30;;;3.50;64.60;;;;;;6247318;22;19996;-73
2022/03/01 05:22:40;;;;;;;3.73;3.43;;;3.60;64.20;;;;;;6247251;22;20451;-73
2022/03/01 05:25:09;;;;;;;4.23;3.17;;;3.60;64.20;;;;;;6247085;22;20424;-72
2022/03/01 05:27:39;;;;;;;5.37;3.27;;;3.50;63.60;;;;;;6246911;22;20102;-73
2022/03/01 05:30:07;;;;;;;6.10;3.00;;;3.40;63.70;;;;;;6247062;22;20000;-73
2022/03/01 05:32:37;;;;;;;3.83;3.27;;;3.40;64.00;;;;;;6247053;22;20008;-73
2022/03/01 05:35:03;;;;;;;3.77;3.10;;;3.50;63.70;;;;;;6245363;23;20031;-73
2022/03/01 05:37:30;;;;;;;3.37;3.07;;;3.50;63.40;;;;;;6246806;22;20320;-73
2022/03/01 05:39:56;;;;;;;4.23;3.00;;;3.50;64.10;;;;;;6246715;22;20319;-73
2022/03/01 05:42:22;;;;;;;2.90;2.70;;;3.40;62.80;;;;;;6246631;23;20075;-73
2022/03/01 05:44:48;;;;;;;6.93;3.30;;;3.40;62.50;;;;;;6247105;22;20320;-73
2022/03/01 05:47:13;;;;;;;3.57;3.27;;;3.40;62.50;;;;;;6246744;23;20000;-73
2022/03/01 05:49:39;;;;;;;3.77;3.37;;;3.30;62.80;;;;;;6244628;23;20008;-73
2022/03/01 05:52:05;;;;;;;6.93;3.33;;;3.40;62.60;;;;;;6245803;22;20008;-73
2022/03/01 05:54:32;;;;;;;4.90;3.17;;;3.40;62.60;;;;;;6244054;23;20031;-72
2022/03/01 05:56:58;;;;;;;4.97;3.67;;;3.30;62.70;;;;;;6245354;22;20000;-73
2022/03/01 05:59:24;;;;;;;3.70;3.40;;;3.20;62.90;;;;;;6243798;23;20007;-72
2022/03/01 06:01:50;;;;;;;3.90;3.17;;;3.20;63.20;;;;;;6245434;22;20016;-73
2022/03/01 06:04:16;;;;;;;4.57;2.90;;;3.10;63.30;;;;;;6245230;22;20000;-73
2022/03/01 06:06:44;;;;;;;4.23;2.83;;;3.10;63.50;;;;;;6246309;23;20314;-72
2022/03/01 06:09:10;;;;;;;4.73;3.00;;;3.10;63.10;;;;;;6245792;23;20000;-73
2022/03/01 06:11:36;;;;;;;4.17;3.20;;;3.10;62.80;;;;;;6246731;22;20456;-73
2022/03/01 06:14:02;;;;;;;3.60;3.30;;;3.10;62.70;;;;;;6245032;23;20031;-73
2022/03/01 06:16:28;;;;;;;4.50;3.77;;;3.10;62.50;;;;;;6246849;22;20004;-73
2022/03/01 06:18:54;;;;;;;7.67;3.80;;;3.30;62.70;;;;;;6246518;23;20457;-73
2022/03/01 06:21:20;;;;;;;5.60;4.10;;;3.30;62.50;;;;;;6246517;23;20003;-78
2022/03/01 06:23:46;;;;;;;5.43;3.43;;;3.30;62.30;;;;;;6246070;23;20008;-78
2022/03/01 06:26:12;;;;;;;3.47;3.17;;;3.20;62.50;;;;;;6245714;23;20011;-78
2022/03/01 06:28:38;;;;;;;5.90;3.70;;;3.20;63.10;;;;;;6247793;22;20027;-77
2022/03/01 06:31:04;;;;;;;6.20;3.70;;;3.20;64.50;;;;;;6247445;22;20462;-78
2022/03/01 06:33:30;;;;;;;6.60;4.43;;;3.10;64.70;;;;;;6247251;22;20069;-78
2022/03/01 06:35:55;;;;;;;4.70;4.20;;;3.10;64.90;;;;;;6247121;23;20004;-78
2022/03/01 06:38:21;;;;;;;9.43;5.53;;;3.10;64.50;;;;;;6247125;22;20087;-77
2022/03/01 06:40:48;;;;;;;9.03;4.97;;;3.20;64.10;;;;;;6247273;23;19996;-78
2022/03/01 06:43:13;;;;;;;6.30;3.40;;;3.20;63.60;;;;;;6247222;22;20000;-78
2022/03/01 06:45:39;;;;;;;4.13;3.77;;;3.20;63.20;;;;;;6247129;23;20015;-78
2022/03/01 06:48:05;;;;;;;4.67;3.47;;;3.20;62.90;;;;;;6247000;23;20008;-78
2022/03/01 06:50:31;;;;;;;4.20;3.70;;;3.30;62.90;;;;;;6247293;23;20010;-77
2022/03/01 06:52:56;;;;;;;5.63;3.60;;;3.30;63.00;;;;;;6247140;22;20551;-78
2022/03/01 06:55:23;;;;;;;4.93;4.40;;;3.20;65.20;;;;;;6247298;22;20332;-78
2022/03/01 06:57:49;;;;;;;9.27;4.00;;;3.00;67.20;;;;;;6247163;22;19996;-78
2022/03/01 07:00:15;;;;;;;4.90;3.97;;;3.00;68.40;;;;;;6245031;23;20484;-78
2022/03/01 07:02:42;;;;;;;5.20;4.00;;;3.10;67.70;;;;;;6245095;23;20006;-78
2022/03/01 07:05:09;;;;;;;5.57;3.87;;;3.30;67.30;;;;;;6247322;22;20078;-77
2022/03/01 07:07:36;;;;;;;6.90;4.27;;;3.40;65.70;;;;;;6247353;22;20070;-78
2022/03/01 07:10:04;;;;;;;4.73;4.20;;;3.50;64.50;;;;;;6245533;23;20004;-78
2022/03/01 07:12:30;;;;;;;4.90;3.93;;;3.60;64.60;;;;;;6245467;23;20008;-78
2022/03/01 07:14:55;;;;;;;5.33;4.53;;;3.70;64.90;;;;;;6245467;23;20331;-77
2022/03/01 07:17:21;;;;;;;6.10;3.93;;;3.70;66.10;;;;;;6245256;23;20050;-77
2022/03/01 07:19:48;;;;;;;7.17;4.13;;;3.80;64.50;;;;;;6247158;22;20027;-78
2022/03/01 07:22:15;;;;;;;8.93;4.03;;;3.80;64.20;;;;;;6245387;23;20008;-78
2022/03/01 07:24:40;;;;;;;4.93;4.50;;;3.90;63.80;;;;;;6245513;23;20000;-78
2022/03/01 07:27:06;;;;;;;5.83;4.57;;;4.00;63.50;;;;;;6246854;23;20058;-77
2022/03/01 07:29:33;;;;;;;8.83;4.33;;;4.00;63.60;;;;;;6246897;22;20001;-78
2022/03/01 07:31:59;;;;;;;5.57;4.53;;;4.00;64.20;;;;;;6245207;23;20089;-78
2022/03/01 07:34:25;;;;;;;6.83;4.50;;;4.10;64.30;;;;;;6246799;22;20022;-78
2022/03/01 07:36:52;;;;;;;4.57;4.10;;;4.10;64.30;;;;;;6244963;23;20008;-78
2022/03/01 07:39:17;;;;;;;5.83;4.27;;;4.20;64.20;;;;;;6245087;23;20008;-77
2022/03/01 07:41:43;;;;;;;5.73;4.17;;;4.20;64.40;;;;;;6247076;23;20131;-77
2022/03/01 07:44:09;;;;;;;7.05;4.50;;;4.20;65.10;;;;;;6245397;23;20038;-78
2022/03/01 07:46:34;;;;;;;5.23;4.17;;;4.30;64.60;;;;;;6245075;23;20095;-77
2022/03/01 07:49:00;;;;;;;5.53;4.05;;;4.30;64.80;;;;;;6246949;23;20032;-77
2022/03/01 07:51:26;;;;;;;6.95;3.42;;;4.40;64.80;;;;;;6247085;23;20013;-78
2022/03/01 07:53:52;;;;;;;5.97;4.40;;;4.40;64.20;;;;;;6246587;23;20313;-78
2022/03/01 07:56:21;;;;;;;4.50;4.10;;;4.50;63.60;;;;;;6246684;23;19996;-78
2022/03/01 07:58:48;;;;;;;6.28;4.70;;;4.60;64.30;;;;;;6246621;22;19996;-78
2022/03/01 08:01:14;;;;;;;7.50;5.03;;;4.60;65.10;;;;;;6246336;22;20665;-78
2022/03/01 08:03:40;;;;;;;12.02;6.72;;;4.70;65.10;;;;;;6246516;22;20007;-78
2022/03/01 08:06:06;;;;;;;19.23;7.43;;;4.70;65.60;;;;;;6244499;23;20008;-77
2022/03/01 08:08:32;;;;;;;17.45;6.13;;;4.70;64.40;;;;;;6244008;23;20008;-78
2022/03/01 08:10:58;;;;;;;11.32;5.70;;;4.80;64.80;;;;;;6245814;22;20004;-78
2022/03/01 08:13:24;;;;;;;6.75;5.57;;;4.80;65.50;;;;;;6245642;23;20096;-79
2022/03/01 08:15:51;;;;;;;8.85;5.53;;;4.90;66.50;;;;;;6243557;23;20000;-79
2022/03/01 08:18:16;;;;;;;7.88;5.40;;;4.90;65.20;;;;;;6245078;23;20332;-79
2022/03/01 08:20:42;;;;;;;10.10;6.35;;;5.10;65.70;;;;;;6245718;23;20471;-79
2022/03/01 08:23:09;;;;;;;14.60;6.22;;;5.10;67.00;;;;;;6245521;22;20424;-78
2022/03/01 08:25:35;;;;;;;10.07;6.93;;;5.20;68.40;;;;;;6244483;23;20042;-79
2022/03/01 08:28:01;;;;;;;11.88;7.15;;;5.20;69.00;;;;;;6246451;22;20075;-78
2022/03/01 08:30:29;;;;;;;9.23;6.03;;;5.30;69.50;;;;;;6246385;22;20010;-79
2022/03/01 08:32:55;;;;;;;11.32;6.20;;;5.30;70.90;;;;;;6244114;23;20008;-78
2022/03/01 08:35:22;;;;;;;13.40;6.78;;;5.40;71.20;;;;;;6244130;23;20010;-79
2022/03/01 08:37:48;;;;;;;9.50;6.72;;;5.50;70.60;;;;;;6246192;22;19996;-79
2022/03/01 08:40:15;;;;;;;8.35;6.13;;;5.50;70.20;;;;;;6246403;22;20024;-78
2022/03/01 08:42:41;;;;;;;10.35;6.05;;;5.50;71.30;;;;;;6244149;23;20008;-73
2022/03/01 08:45:08;;;;;;;17.13;7.22;;;5.60;70.20;;;;;;6244575;22;20027;-73
2022/03/01 08:47:33;;;;;;;11.75;6.82;;;5.60;71.30;;;;;;6242341;23;20007;-73
2022/03/01 08:50:00;;;;;;;10.52;6.40;;;5.70;70.80;;;;;;6243540;23;20008;-72
2022/03/01 08:52:26;;;;;;;9.32;6.15;;;5.70;71.10;;;;;;6240402;23;20012;-72
2022/03/01 08:54:52;;;;;;;8.60;6.25;;;5.80;71.70;;;;;;6242385;23;20004;-72
2022/03/01 08:57:18;;;;;;;9.23;5.93;;;5.90;71.20;;;;;;6242414;22;20000;-73
2022/03/01 08:59:43;;;;;;;8.48;5.60;;;6.00;70.00;;;;;;6244703;22;20050;-72
2022/03/01 09:02:09;;;;;;;7.18;4.95;;;6.20;67.30;;;;;;6245247;22;20004;-72
2022/03/01 09:04:35;;;;;;;7.90;5.53;;;6.30;66.70;;;;;;6245188;23;20309;-73
2022/03/01 09:07:03;;;;;;;9.95;5.72;;;6.40;67.30;;;;;;6244551;23;20004;-72
2022/03/01 09:09:32;;;;;;;12.73;6.30;;;6.40;68.30;;;;;;6243714;23;20012;-73
2022/03/01 09:11:59;;;;;;;9.43;6.35;;;6.40;68.60;;;;;;6244739;23;20012;-72
2022/03/01 09:14:24;;;;;;;13.10;7.15;;;6.50;71.10;;;;;;6245091;23;20552;-73
2022/03/01 09:16:50;;;;;;;12.30;6.50;;;6.50;73.00;;;;;;6245181;23;19996;-72
2022/03/01 09:19:16;;;;;;;12.80;7.30;;;6.50;74.00;;;;;;6245659;22;20079;-79
2022/03/01 09:21:42;;;;;;;11.77;7.43;;;6.50;74.20;;;;;;6243904;23;20007;-79
2022/03/01 09:24:08;;;;;;;9.82;7.00;;;6.60;75.20;;;;;;6245302;22;20061;-79
2022/03/01 09:26:34;;;;;;;13.35;7.90;;;6.60;74.30;;;;;;6243823;23;20091;-79
2022/03/01 09:29:00;;;;;;;15.82;8.63;;;6.60;75.30;;;;;;6243907;23;20038;-79
2022/03/01 09:31:26;;;;;;;12.50;8.43;;;6.70;75.60;;;;;;6245405;22;20340;-79
2022/03/01 09:33:52;;;;;;;14.13;7.55;;;6.70;76.50;;;;;;6245428;22;20000;-78
2022/03/01 09:36:18;;;;;;;12.77;7.80;;;6.70;76.10;;;;;;6245646;22;20004;-78
2022/03/01 09:38:44;;;;;;;10.18;7.00;;;6.80;75.40;;;;;;6247340;22;20590;-79
2022/03/01 09:41:14;;;;;;;10.00;6.25;;;6.90;75.10;;;;;;6247547;22;20365;-79
2022/03/01 09:43:41;;;;;;;13.23;7.50;;;6.90;73.30;;;;;;6245544;23;20008;-79
2022/03/01 09:46:08;;;;;;;10.80;7.20;;;7.00;72.70;;;;;;6247129;22;20328;-79
2022/03/01 09:48:35;;;;;;;14.68;7.82;;;7.00;70.60;;;;;;6245487;23;20008;-79
2022/03/01 09:51:02;;;;;;;10.77;6.80;;;7.10;71.20;;;;;;6247478;22;20054;-79
2022/03/01 09:53:28;;;;;;;10.70;6.43;;;7.10;72.20;;;;;;6245561;23;20420;-79
2022/03/01 09:55:55;;;;;;;9.13;6.47;;;7.10;72.20;;;;;;6247244;23;20000;-79
2022/03/01 09:58:22;;;;;;;15.90;7.32;;;7.20;70.60;;;;;;6247119;22;20000;-78
2022/03/01 10:00:47;;;;;;;10.48;6.22;;;7.20;69.30;;;;;;6246854;22;20016;-77
2022/03/01 10:03:19;;;;;;;9.23;5.25;;;7.30;66.50;;;;;;6247203;22;20078;-78
2022/03/01 10:05:46;;;;;;;12.07;5.63;;;7.30;63.20;;;;;;6247264;22;20004;-78
2022/03/01 10:08:16;;;;;;;8.55;5.75;;;7.30;60.50;;;;;;6245581;23;20008;-78
2022/03/01 10:10:43;;;;;;;8.77;5.32;;;7.40;61.50;;;;;;6245580;23;20004;-79
2022/03/01 10:13:09;;;;;;;10.15;5.38;;;7.40;59.50;;;;;;6247264;22;20375;-78
2022/03/01 10:15:35;;;;;;;9.15;5.50;;;7.40;58.40;;;;;;6245732;23;20000;-77
2022/03/01 10:18:15;;;;;;;10.00;4.97;;;7.40;58.70;;;;;;6245666;23;20011;-78
2022/03/01 10:20:45;;;;;;;7.07;4.88;;;7.50;59.30;;;;;;6247211;22;19996;-78
2022/03/01 10:23:12;;;;;;;7.72;5.15;;;7.50;58.60;;;;;;6247082;22;20012;-78
2022/03/01 10:25:43;;;;;;;10.25;5.03;;;7.50;58.90;;;;;;6246994;22;20028;-78
2022/03/01 10:28:09;;;;;;;9.77;4.97;;;7.50;58.00;;;;;;6245097;23;20537;-78
2022/03/01 10:30:37;;;;;;;9.02;4.93;;;7.60;56.90;;;;;;6246861;22;20011;-78
2022/03/01 10:33:15;;;;;;;7.75;5.38;;;7.60;56.90;;;;;;6245176;23;20040;-78
2022/03/01 10:35:48;;;;;;;7.03;5.18;;;7.60;56.40;;;;;;6246821;22;20003;-78
2022/03/01 10:38:19;;;;;;;5.68;4.15;;;7.70;56.70;;;;;;6246642;22;20491;-78
2022/03/01 10:40:45;;;;;;;7.57;5.32;;;7.80;57.00;;;;;;6245002;23;20539;-78
2022/03/01 10:43:13;;;;;;;11.02;6.55;;;7.80;57.00;;;;;;6245271;23;20010;-78
2022/03/01 10:45:47;;;;;;;8.98;6.00;;;7.70;58.10;;;;;;6245338;23;20091;-78
2022/03/01 10:48:31;;;;;;;7.35;5.28;;;7.80;59.00;;;;;;6246812;23;20328;-78
2022/03/01 10:50:58;;;;;;;7.45;5.63;;;8.00;58.20;;;;;;6246845;22;20000;-78
2022/03/01 10:53:35;;;;;;;10.13;5.95;;;8.00;57.90;;;;;;6246784;22;20549;-78
2022/03/01 10:56:03;;;;;;;7.88;5.15;;;8.00;57.40;;;;;;6245167;23;20007;-78
2022/03/01 10:58:30;;;;;;;7.88;5.40;;;8.10;57.40;;;;;;6246731;22;20004;-78
2022/03/01 11:00:56;;;;;;;8.45;5.72;;;8.20;57.90;;;;;;6244987;23;20010;-78
2022/03/01 11:03:23;;;;;;;16.92;6.22;;;8.20;58.10;;;;;;6246826;22;20064;-78
2022/03/01 11:05:50;;;;;;;11.98;6.10;;;8.40;58.50;;;;;;6246820;22;20083;-79
2022/03/01 11:08:16;;;;;;;8.23;5.45;;;8.40;57.80;;;;;;6246539;22;20440;-78
2022/03/01 11:10:44;;;;;;;12.10;6.07;;;8.50;55.00;;;;;;6246555;22;20004;-78
2022/03/01 11:13:11;;;;;;;8.90;5.93;;;8.50;55.40;;;;;;6246430;23;20043;-78
2022/03/01 11:15:52;;;;;;;10.57;5.97;;;8.60;56.40;;;;;;6246521;22;20424;-78
2022/03/01 11:18:39;;;;;;;6.28;5.25;;;8.60;54.80;;;;;;6246256;23;20023;-78
2022/03/01 11:21:08;;;;;;;9.82;6.32;;;8.70;56.00;;;;;;6246335;23;20050;-78
2022/03/01 11:23:34;;;;;;;8.52;5.40;;;8.80;54.80;;;;;;6246431;22;20050;-78
2022/03/01 11:26:11;;;;;;;6.95;5.53;;;8.80;54.10;;;;;;6246632;23;20008;-78
2022/03/01 11:28:40;;;;;;;5.38;4.85;;;8.90;54.10;;;;;;6244781;23;20450;-78
2022/03/01 11:31:19;;;;;;;6.68;5.15;;;8.90;53.00;;;;;;6244893;23;20336;-78
2022/03/01 11:33:57;;;;;;;9.35;5.20;;;8.90;53.20;;;;;;6246254;22;20000;-77
2022/03/01 11:36:27;;;;;;;6.88;5.18;;;8.90;53.20;;;;;;6244296;23;20442;-78
2022/03/01 11:38:53;;;;;;;10.20;5.70;;;8.90;52.70;;;;;;6246475;22;20459;-78
2022/03/01 11:41:22;;;;;;;9.93;6.05;;;8.90;52.30;;;;;;6246366;23;20031;-78
2022/03/01 11:44:01;;;;;;;8.70;5.30;;;9.00;52.80;;;;;;6246242;22;20004;-78
2022/03/01 11:46:27;;;;;;;10.90;5.68;;;9.10;53.20;;;;;;6245450;23;20000;-72
2022/03/01 11:48:57;;;;;;;8.45;6.20;;;9.10;53.50;;;;;;6245710;22;20062;-72
2022/03/01 11:51:34;;;;;;;11.77;6.22;;;9.20;53.40;;;;;;6244147;23;20039;-73
2022/03/01 11:54:08;;;;;;;12.65;6.75;;;9.10;53.60;;;;;;6244273;23;20008;-72
2022/03/01 11:56:39;;;;;;;13.52;6.60;;;9.20;53.50;;;;;;6245754;22;20034;-73
2022/03/01 11:59:08;;;;;;;8.95;5.80;;;9.20;53.80;;;;;;6245928;22;20030;-72
2022/03/01 12:01:35;;;;;;;7.22;5.65;;;9.20;54.10;;;;;;6242485;23;20039;-73
2022/03/01 12:04:03;;;;;;;10.88;7.00;;;9.40;54.50;;;;;;6245734;22;20000;-73
2022/03/01 12:06:30;;;;;;;9.82;6.25;;;9.40;54.50;;;;;;6244466;22;20004;-73
2022/03/01 12:08:58;;;;;;;7.70;6.10;;;9.50;54.50;;;;;;6245145;22;20004;-73
2022/03/01 12:11:35;;;;;;;10.40;5.95;;;9.40;53.10;;;;;;6245173;22;20027;-72
2022/03/01 12:14:04;;;;;;;13.50;7.00;;;9.50;53.90;;;;;;6245203;22;20008;-73
2022/03/01 12:16:31;;;;;;;7.28;5.55;;;9.60;54.40;;;;;;6243711;23;20440;-73
2022/03/01 12:19:17;;;;;;;8.77;5.93;;;9.70;53.80;;;;;;6245457;22;20000;-72
2022/03/01 12:21:49;;;;;;;10.60;6.57;;;9.70;53.30;;;;;;6245519;22;20004;-72
2022/03/01 12:24:16;;;;;;;10.38;6.45;;;9.70;53.70;;;;;;6245634;22;20001;-72
2022/03/01 12:26:51;;;;;;;7.78;5.68;;;9.80;54.30;;;;;;6243336;23;20019;-72
2022/03/01 12:29:24;;;;;;;12.30;6.28;;;9.80;52.10;;;;;;6244047;23;20396;-72
2022/03/01 12:31:57;;;;;;;8.93;6.68;;;9.80;52.50;;;;;;6245493;22;20651;-72
2022/03/01 12:34:28;;;;;;;9.98;6.20;;;10.00;54.20;;;;;;6243746;23;20319;-73
2022/03/01 12:36:56;;;;;;;11.50;6.50;;;10.00;52.30;;;;;;6245165;22;20023;-72
2022/03/01 12:39:23;;;;;;;10.43;7.03;;;10.00;52.00;;;;;;6243879;23;20027;-72
2022/03/01 12:41:50;;;;;;;9.38;6.57;;;10.00;52.00;;;;;;6243671;23;20007;-73
2022/03/01 12:44:20;;;;;;;8.85;5.95;;;10.10;52.50;;;;;;6244697;22;20020;-72
2022/03/01 12:46:46;;;;;;;13.35;6.55;;;10.20;52.40;;;;;;6245005;22;20007;-72
2022/03/01 12:49:14;;;;;;;8.43;6.15;;;10.20;51.70;;;;;;6245368;22;20000;-72
2022/03/01 12:51:41;;;;;;;11.40;6.82;;;10.10;52.30;;;;;;6244825;22;20004;-73